createdAt,value
2023-04-01T00:01:28.969Z,6.86
2023-04-01T00:03:57.221Z,6.93
2023-04-01T00:06:24.467Z,6.88
2023-04-01T00:08:51.362Z,6.87
2023-04-01T00:11:20.547Z,6.79
2023-04-01T00:13:47.723Z,6.82
2023-04-01T00:16:21.644Z,6.90
2023-04-01T00:18:50.270Z,6.76
2023-04-01T00:21:17.296Z,6.60
2023-04-01T00:23:44.673Z,6.70
2023-04-01T00:26:13.185Z,6.71
2023-04-01T00:28:41.187Z,6.54
2023-04-01T00:31:10.597Z,6.63
2023-04-01T00:33:37.914Z,6.53
2023-04-01T00:36:18.073Z,6.45
2023-04-01T00:38:45.880Z,6.54
2023-04-01T00:41:15.885Z,6.46
2023-04-01T00:43:44.817Z,6.43
2023-04-01T00:46:11.806Z,6.44
2023-04-01T00:48:42.755Z,6.51
2023-04-01T00:51:20.846Z,6.41
2023-04-01T00:53:51.063Z,6.43
2023-04-01T00:56:26.153Z,6.36
2023-04-01T00:59:02.984Z,6.42
2023-04-01T01:01:31.625Z,6.45
2023-04-01T01:03:58.510Z,6.36
2023-04-01T01:06:39.977Z,6.41
2023-04-01T01:09:22.393Z,6.28
2023-04-01T01:11:55.993Z,6.39
2023-04-01T01:14:37.435Z,6.43
2023-04-01T01:17:38.443Z,6.38
2023-04-01T01:20:26.357Z,6.33
2023-04-01T01:23:12.205Z,6.37
2023-04-01T01:25:45.179Z,6.21
2023-04-01T01:28:30.452Z,6.09
2023-04-01T01:31:11.306Z,6.13
2023-04-01T01:33:47.468Z,6.25
2023-04-01T01:36:16.018Z,6.04
2023-04-01T01:38:43.227Z,6.08
2023-04-01T01:41:11.487Z,5.98
2023-04-01T01:43:42.511Z,5.94
2023-04-01T01:46:13.532Z,5.89
2023-04-01T01:48:43.021Z,5.87
2023-04-01T01:51:09.935Z,5.77
2023-04-01T01:53:37.733Z,5.79
2023-04-01T01:56:05.630Z,5.82
2023-04-01T01:58:41.796Z,5.82
2023-04-01T02:01:14.291Z,5.89
2023-04-01T02:03:43.125Z,5.98
2023-04-01T02:06:14.909Z,5.85
2023-04-01T02:08:52.360Z,5.69
2023-04-01T02:11:24.822Z,5.91
2023-04-01T02:13:57.132Z,5.90
2023-04-01T02:16:35.732Z,5.76
2023-04-01T02:19:08.283Z,5.71
2023-04-01T02:21:37.319Z,5.64
2023-04-01T02:24:08.814Z,5.71
2023-04-01T02:26:36.179Z,5.68
2023-04-01T02:29:05.306Z,5.66
2023-04-01T02:31:33.152Z,5.65
2023-04-01T02:34:00.192Z,5.70
2023-04-01T02:36:27.103Z,5.57
2023-04-01T02:38:56.816Z,5.48
2023-04-01T02:41:23.553Z,5.49
2023-04-01T02:43:50.698Z,5.51
2023-04-01T02:46:17.474Z,5.45
2023-04-01T02:48:44.456Z,5.60
2023-04-01T02:51:11.653Z,5.49
2023-04-01T02:53:38.330Z,5.55
2023-04-01T02:56:05.516Z,5.55
2023-04-01T02:58:32.260Z,5.52
2023-04-01T03:00:59.096Z,5.41
2023-04-01T03:03:26.269Z,5.46
2023-04-01T03:05:56.342Z,5.49
2023-04-01T03:08:23.334Z,5.43
2023-04-01T03:10:50.274Z,5.36
2023-04-01T03:13:16.987Z,5.27
2023-04-01T03:15:43.662Z,5.32
2023-04-01T03:18:10.501Z,5.36
2023-04-01T03:20:37.221Z,5.28
2023-04-01T03:23:03.961Z,5.33
2023-04-01T03:25:31.688Z,5.32
2023-04-01T03:28:00.614Z,5.32
2023-04-01T03:30:27.839Z,5.31
2023-04-01T03:32:54.834Z,5.17
2023-04-01T03:35:21.584Z,5.16
2023-04-01T03:37:48.340Z,5.19
2023-04-01T03:40:15.116Z,5.18
2023-04-01T03:42:42.049Z,5.16
2023-04-01T03:45:09.047Z,5.10
2023-04-01T03:47:36.394Z,5.10
2023-04-01T03:50:03.158Z,5.16
2023-04-01T03:52:29.989Z,5.18
2023-04-01T03:54:56.736Z,5.15
2023-04-01T03:57:23.820Z,5.12
2023-04-01T03:59:50.647Z,5.13
2023-04-01T04:02:17.438Z,5.22
2023-04-01T04:04:44.368Z,5.26
2023-04-01T04:07:11.337Z,5.22
2023-04-01T04:09:38.049Z,5.18
2023-04-01T04:12:06.486Z,5.15
2023-04-01T04:14:33.203Z,5.22
2023-04-01T04:17:00.018Z,5.20
2023-04-01T04:19:26.762Z,5.18
2023-04-01T04:21:53.453Z,5.22
2023-04-01T04:24:20.236Z,5.16
2023-04-01T04:26:46.903Z,5.15
2023-04-01T04:29:13.766Z,5.32
2023-04-01T04:31:40.606Z,5.25
2023-04-01T04:34:07.469Z,5.21
2023-04-01T04:36:34.204Z,5.12
2023-04-01T04:39:03.349Z,5.06
2023-04-01T04:41:30.217Z,5.13
2023-04-01T04:43:57.558Z,5.17
2023-04-01T04:46:25.720Z,5.18
2023-04-01T04:48:52.426Z,5.13
2023-04-01T04:51:20.458Z,5.23
2023-04-01T04:53:47.521Z,5.19
2023-04-01T04:56:18.492Z,5.18
2023-04-01T04:58:45.502Z,5.15
2023-04-01T05:01:15.538Z,5.15
2023-04-01T05:03:42.984Z,5.16
2023-04-01T05:06:12.330Z,5.10
2023-04-01T05:08:40.323Z,5.19
2023-04-01T05:11:16.054Z,5.21
2023-04-01T05:13:43.491Z,5.26
2023-04-01T05:16:13.167Z,5.12
2023-04-01T05:18:40.110Z,5.13
2023-04-01T05:21:09.875Z,5.10
2023-04-01T05:23:36.965Z,5.09
2023-04-01T05:26:06.589Z,5.12
2023-04-01T05:28:33.479Z,5.12
2023-04-01T05:31:02.318Z,5.09
2023-04-01T05:33:30.636Z,4.97
2023-04-01T05:35:57.828Z,5.02
2023-04-01T05:38:24.627Z,5.04
2023-04-01T05:40:51.398Z,5.06
2023-04-01T05:43:18.087Z,5.10
2023-04-01T05:45:44.948Z,5.07
2023-04-01T05:48:11.782Z,4.93
2023-04-01T05:50:41.148Z,5.01
2023-04-01T05:53:07.956Z,5.02
2023-04-01T05:55:36.927Z,4.97
2023-04-01T05:58:03.898Z,5.05
2023-04-01T06:00:31.117Z,5.12
2023-04-01T06:03:00.925Z,5.08
2023-04-01T06:05:43.474Z,5.01
2023-04-01T06:08:20.547Z,4.95
2023-04-01T06:11:02.693Z,4.83
2023-04-01T06:13:35.565Z,4.94
2023-04-01T06:16:17.099Z,5.00
2023-04-01T06:18:54.153Z,4.89
2023-04-01T06:21:54.861Z,4.92
2023-04-01T06:24:36.771Z,5.03
2023-04-01T06:27:18.643Z,5.00
2023-04-01T06:30:06.893Z,5.05
2023-04-01T06:33:03.296Z,5.04
2023-04-01T06:35:50.890Z,5.09
2023-04-01T06:38:54.883Z,5.12
2023-04-01T06:41:53.459Z,5.05
2023-04-01T06:44:42.843Z,4.97
2023-04-01T06:47:15.648Z,5.02
2023-04-01T06:50:04.301Z,5.01
2023-04-01T06:52:55.387Z,5.04
2023-04-01T06:55:22.986Z,5.09
2023-04-01T06:57:53.270Z,5.01
2023-04-01T07:00:44.099Z,5.03
2023-04-01T07:03:33.888Z,5.08
2023-04-01T07:06:06.278Z,5.18
2023-04-01T07:08:38.778Z,4.96
2023-04-01T07:11:07.991Z,5.02
2023-04-01T07:13:37.633Z,5.08
2023-04-01T07:16:13.234Z,5.01
2023-04-01T07:18:48.660Z,5.11
2023-04-01T07:21:42.454Z,4.95
2023-04-01T07:24:23.775Z,5.05
2023-04-01T07:26:55.831Z,5.27
2023-04-01T07:29:22.532Z,5.02
2023-04-01T07:32:15.587Z,5.08
2023-04-01T07:35:09.865Z,5.01
2023-04-01T07:37:56.814Z,5.05
2023-04-01T07:40:49.077Z,5.23
2023-04-01T07:43:23.197Z,5.04
2023-04-01T07:46:02.241Z,4.90
2023-04-01T07:48:46.564Z,4.98
2023-04-01T07:51:24.279Z,5.01
2023-04-01T07:54:09.303Z,4.95
2023-04-01T07:57:01.887Z,4.87
2023-04-01T07:59:52.992Z,4.83
2023-04-01T08:02:30.190Z,4.94
2023-04-01T08:05:16.202Z,4.92
2023-04-01T08:08:10.455Z,4.89
2023-04-01T08:10:52.379Z,4.83
2023-04-01T08:13:39.748Z,4.87
2023-04-01T08:16:37.678Z,4.78
2023-04-01T08:19:31.055Z,4.76
2023-04-01T08:22:05.388Z,4.87
2023-04-01T08:24:47.762Z,4.77
2023-04-01T08:27:26.075Z,4.74
2023-04-01T08:29:59.891Z,4.80
2023-04-01T08:32:31.954Z,4.81
2023-04-01T08:35:21.006Z,4.79
2023-04-01T08:37:51.463Z,4.77
2023-04-01T08:40:55.729Z,4.74
2023-04-01T08:43:41.505Z,4.67
2023-04-01T08:46:45.762Z,4.78
2023-04-01T08:49:16.495Z,4.83
2023-04-01T08:51:59.450Z,4.66
2023-04-01T08:55:25.104Z,4.72
2023-04-01T08:58:13.778Z,4.69
2023-04-01T09:01:17.825Z,4.59
2023-04-01T09:04:45.447Z,4.68
2023-04-01T09:07:27.394Z,4.62
2023-04-01T09:10:39.960Z,4.65
2023-04-01T09:13:15.340Z,4.77
2023-04-01T09:16:02.103Z,4.73
2023-04-01T09:18:48.890Z,4.82
2023-04-01T09:21:34.454Z,4.78
2023-04-01T09:24:29.974Z,4.76
2023-04-01T09:27:04.697Z,4.76
2023-04-01T09:29:49.933Z,4.84
2023-04-01T09:32:35.059Z,4.74
2023-04-01T09:35:22.976Z,4.88
2023-04-01T09:38:21.050Z,4.68
2023-04-01T09:41:16.899Z,4.74
2023-04-01T09:43:59.830Z,4.89
2023-04-01T09:46:44.562Z,4.75
2023-04-01T09:49:46.419Z,4.86
2023-04-01T09:52:35.579Z,4.91
2023-04-01T09:55:23.635Z,4.89
2023-04-01T09:58:44.348Z,5.03
2023-04-01T10:01:45.918Z,4.92
2023-04-01T10:04:34.523Z,4.83
2023-04-01T10:07:13.404Z,4.74
2023-04-01T10:09:46.640Z,4.86
2023-04-01T10:12:34.589Z,4.76
2023-04-01T10:15:35.098Z,4.73
2023-04-01T10:18:11.335Z,4.83
2023-04-01T10:21:04.440Z,4.84
2023-04-01T10:23:51.261Z,4.97
2023-04-01T10:26:36.723Z,4.84
2023-04-01T10:29:24.780Z,4.76
2023-04-01T10:32:10.507Z,4.74
2023-04-01T10:34:49.304Z,4.74
2023-04-01T10:37:25.945Z,4.82
2023-04-01T10:40:13.918Z,4.87
2023-04-01T10:43:18.729Z,4.97
2023-04-01T10:45:58.888Z,5.03
2023-04-01T10:48:33.171Z,4.92
2023-04-01T10:51:24.722Z,4.80
2023-04-01T10:54:40.819Z,4.84
2023-04-01T10:57:13.769Z,4.90
2023-04-01T10:59:43.720Z,4.94
2023-04-01T11:02:49.342Z,4.84
2023-04-01T11:05:29.331Z,4.76
2023-04-01T11:08:17.580Z,4.84
2023-04-01T11:11:22.706Z,4.73
2023-04-01T11:14:11.076Z,4.93
2023-04-01T11:17:06.189Z,5.05
2023-04-01T11:19:57.748Z,4.97
2023-04-01T11:22:46.342Z,4.97
2023-04-01T11:25:19.764Z,4.83
2023-04-01T11:27:54.576Z,4.98
2023-04-01T11:30:55.378Z,4.84
2023-04-01T11:33:50.533Z,5.05
2023-04-01T11:36:27.055Z,4.96
2023-04-01T11:39:32.055Z,4.98
2023-04-01T11:42:16.278Z,4.97
2023-04-01T11:45:16.692Z,4.90
2023-04-01T11:48:02.659Z,4.83
2023-04-01T11:50:32.449Z,5.12
2023-04-01T11:53:02.683Z,5.17
2023-04-01T11:55:54.941Z,4.89
2023-04-01T11:58:43.199Z,5.00
2023-04-01T12:01:37.882Z,4.91
2023-04-01T12:04:15.167Z,5.04
2023-04-01T12:07:17.619Z,4.87
2023-04-01T12:10:29.727Z,4.83
2023-04-01T12:13:37.346Z,4.91
2023-04-01T12:16:07.938Z,4.90
2023-04-01T12:19:06.464Z,4.90
2023-04-01T12:21:38.678Z,4.91
2023-04-01T12:24:25.417Z,4.78
2023-04-01T12:27:17.159Z,4.74
2023-04-01T12:30:08.302Z,4.94
2023-04-01T12:33:06.330Z,4.92
2023-04-01T12:35:57.984Z,4.88
2023-04-01T12:38:28.565Z,4.93
2023-04-01T12:41:14.343Z,4.92
2023-04-01T12:44:13.667Z,4.92
2023-04-01T12:46:52.519Z,4.97
2023-04-01T12:49:30.397Z,4.80
2023-04-01T12:52:15.806Z,4.95
2023-04-01T12:55:15.073Z,4.83
2023-04-01T12:58:23.008Z,4.84
2023-04-01T13:01:18.920Z,4.82
2023-04-01T13:04:36.127Z,4.77
2023-04-01T13:07:18.056Z,4.71
2023-04-01T13:10:04.211Z,4.65
2023-04-01T13:12:59.102Z,4.78
2023-04-01T13:15:50.463Z,4.72
2023-04-01T13:18:26.465Z,4.80
2023-04-01T13:21:02.391Z,4.88
2023-04-01T13:23:44.260Z,4.75
2023-04-01T13:26:40.158Z,4.75
2023-04-01T13:29:21.258Z,4.72
2023-04-01T13:31:48.121Z,4.60
2023-04-01T13:34:23.982Z,4.67
2023-04-01T13:37:05.637Z,4.74
2023-04-01T13:39:41.156Z,4.74
2023-04-01T13:42:15.956Z,4.71
2023-04-01T13:45:11.183Z,4.72
2023-04-01T13:48:15.771Z,4.71
2023-04-01T13:51:10.693Z,4.79
2023-04-01T13:54:11.421Z,4.68
2023-04-01T13:57:02.926Z,4.67
2023-04-01T13:59:44.887Z,4.77
2023-04-01T14:02:59.624Z,4.78
2023-04-01T14:05:48.893Z,4.77
2023-04-01T14:08:35.197Z,4.69
2023-04-01T14:11:26.793Z,4.60
2023-04-01T14:14:15.298Z,4.64
2023-04-01T14:16:51.105Z,4.56
2023-04-01T14:19:26.485Z,4.59
2023-04-01T14:22:05.101Z,4.60
2023-04-01T14:24:50.092Z,4.65
2023-04-01T14:27:42.181Z,4.75
2023-04-01T14:30:37.267Z,4.74
2023-04-01T14:33:27.039Z,4.57
2023-04-01T14:36:23.950Z,4.71
2023-04-01T14:39:12.800Z,4.63
2023-04-01T14:41:51.563Z,4.62
2023-04-01T14:44:30.776Z,4.82
2023-04-01T14:47:12.920Z,4.78
2023-04-01T14:49:46.901Z,4.81
2023-04-01T14:52:22.856Z,4.75
2023-04-01T14:54:51.460Z,4.62
2023-04-01T14:57:25.043Z,4.77
2023-04-01T15:00:07.499Z,4.71
2023-04-01T15:02:46.615Z,4.65
2023-04-01T15:05:16.728Z,4.56
2023-04-01T15:07:55.886Z,4.65
2023-04-01T15:10:42.239Z,4.65
2023-04-01T15:13:25.790Z,4.62
2023-04-01T15:16:10.971Z,4.49
2023-04-01T15:18:52.833Z,4.44
2023-04-01T15:21:39.837Z,4.59
2023-04-01T15:24:30.422Z,4.73
2023-04-01T15:27:44.045Z,4.68
2023-04-01T15:30:22.716Z,4.53
2023-04-01T15:33:07.885Z,4.59
2023-04-01T15:35:56.929Z,4.48
2023-04-01T15:38:35.926Z,4.37
2023-04-01T15:41:18.042Z,4.30
2023-04-01T15:43:55.495Z,4.37
2023-04-01T15:46:46.295Z,4.37
2023-04-01T15:49:24.376Z,4.35
2023-04-01T15:52:22.261Z,4.28
2023-04-01T15:54:55.151Z,4.30
2023-04-01T15:57:52.982Z,4.33
2023-04-01T16:00:29.673Z,4.38
2023-04-01T16:03:24.644Z,4.43
2023-04-01T16:06:07.871Z,4.32
2023-04-01T16:09:00.765Z,4.35
2023-04-01T16:11:50.024Z,4.20
2023-04-01T16:14:40.525Z,4.13
2023-04-01T16:17:34.989Z,4.29
2023-04-01T16:20:11.278Z,4.21
2023-04-01T16:22:52.198Z,4.14
2023-04-01T16:25:35.268Z,4.19
2023-04-01T16:28:18.520Z,4.24
2023-04-01T16:30:56.197Z,4.26
2023-04-01T16:33:32.999Z,4.20
2023-04-01T16:36:12.394Z,4.16
2023-04-01T16:38:39.187Z,4.05
2023-04-01T16:41:24.923Z,4.35
2023-04-01T16:43:56.354Z,4.14
2023-04-01T16:46:36.534Z,4.06
2023-04-01T16:49:12.469Z,4.15
2023-04-01T16:52:01.909Z,4.17
2023-04-01T16:54:44.176Z,4.07
2023-04-01T16:57:11.166Z,4.10
2023-04-01T16:59:50.107Z,4.14
2023-04-01T17:02:20.214Z,4.36
2023-04-01T17:04:49.059Z,4.01
2023-04-01T17:07:49.932Z,3.85
2023-04-01T17:10:36.109Z,3.90
2023-04-01T17:13:09.449Z,3.93
2023-04-01T17:15:42.950Z,3.87
2023-04-01T17:18:27.609Z,3.87
2023-04-01T17:20:57.433Z,3.95
2023-04-01T17:24:01.770Z,3.98
2023-04-01T17:26:41.523Z,3.90
2023-04-01T17:29:29.615Z,3.99
2023-04-01T17:32:36.844Z,3.86
2023-04-01T17:35:15.371Z,3.83
2023-04-01T17:38:20.678Z,3.88
2023-04-01T17:41:15.405Z,3.80
2023-04-01T17:43:53.253Z,3.80
2023-04-01T17:46:43.373Z,3.75
2023-04-01T17:49:34.879Z,3.84
2023-04-01T17:52:26.917Z,3.74
2023-04-01T17:55:25.389Z,3.76
2023-04-01T17:58:29.323Z,3.93
2023-04-01T18:01:14.772Z,3.90
2023-04-01T18:04:03.480Z,3.80
2023-04-01T18:06:52.850Z,3.69
2023-04-01T18:09:42.857Z,3.68
2023-04-01T18:13:01.289Z,3.56
2023-04-01T18:15:39.044Z,3.44
2023-04-01T18:18:28.116Z,3.39
2023-04-01T18:21:06.923Z,3.31
2023-04-01T18:23:55.539Z,3.27
2023-04-01T18:26:34.386Z,3.25
2023-04-01T18:29:14.581Z,3.19
2023-04-01T18:31:46.822Z,3.19
2023-04-01T18:34:31.160Z,3.29
2023-04-01T18:37:03.104Z,3.31
2023-04-01T18:39:43.556Z,3.39
2023-04-01T18:42:23.736Z,3.34
2023-04-01T18:44:56.542Z,3.35
2023-04-01T18:47:31.319Z,3.28
2023-04-01T18:50:04.340Z,3.38
2023-04-01T18:52:51.348Z,3.29
2023-04-01T18:55:36.317Z,3.36
2023-04-01T18:58:25.747Z,3.41
2023-04-01T19:01:15.035Z,3.40
2023-04-01T19:04:02.745Z,3.44
2023-04-01T19:06:50.347Z,3.23
2023-04-01T19:09:21.796Z,3.26
2023-04-01T19:11:57.849Z,3.12
2023-04-01T19:14:43.475Z,3.04
2023-04-01T19:17:35.246Z,2.97
2023-04-01T19:20:26.797Z,2.86
2023-04-01T19:23:12.417Z,2.95
2023-04-01T19:25:54.316Z,2.87
2023-04-01T19:28:44.807Z,2.87
2023-04-01T19:31:48.987Z,2.86
2023-04-01T19:34:38.265Z,2.94
2023-04-01T19:37:30.524Z,2.82
2023-04-01T19:40:05.149Z,2.90
2023-04-01T19:42:31.884Z,2.89
2023-04-01T19:44:58.740Z,2.91
2023-04-01T19:47:47.202Z,2.84
2023-04-01T19:50:27.782Z,2.72
2023-04-01T19:52:59.797Z,2.78
2023-04-01T19:55:50.565Z,2.98
2023-04-01T19:58:45.368Z,2.85
2023-04-01T20:01:44.331Z,2.72
2023-04-01T20:04:27.380Z,2.81
2023-04-01T20:07:10.158Z,2.70
2023-04-01T20:10:07.746Z,2.73
2023-04-01T20:12:59.734Z,2.71
2023-04-01T20:15:35.633Z,2.62
2023-04-01T20:18:23.063Z,2.53
2023-04-01T20:21:01.384Z,2.59
2023-04-01T20:23:35.688Z,2.58
2023-04-01T20:26:10.110Z,2.65
2023-04-01T20:29:20.756Z,2.53
2023-04-01T20:32:11.173Z,2.44
2023-04-01T20:34:57.761Z,2.46
2023-04-01T20:37:38.943Z,2.50
2023-04-01T20:40:11.736Z,2.39
2023-04-01T20:42:56.336Z,2.43
2023-04-01T20:45:38.752Z,2.39
2023-04-01T20:48:18.514Z,2.31
2023-04-01T20:51:04.960Z,2.37
2023-04-01T20:53:39.498Z,2.39
2023-04-01T20:56:18.701Z,2.35
2023-04-01T20:59:04.359Z,2.30
2023-04-01T21:02:03.038Z,2.23
2023-04-01T21:05:06.812Z,2.26
2023-04-01T21:07:47.572Z,2.26
2023-04-01T21:10:33.030Z,2.21
2023-04-01T21:12:59.654Z,2.20
2023-04-01T21:15:32.441Z,2.22
2023-04-01T21:18:12.115Z,2.17
2023-04-01T21:20:59.146Z,2.19
2023-04-01T21:23:59.354Z,2.13
2023-04-01T21:27:10.908Z,2.16
2023-04-01T21:29:48.822Z,2.15
2023-04-01T21:32:29.066Z,2.14
2023-04-01T21:35:10.646Z,2.08
2023-04-01T21:37:52.708Z,2.06
2023-04-01T21:40:32.352Z,2.10
2023-04-01T21:43:05.115Z,2.14
2023-04-01T21:45:53.124Z,2.12
2023-04-01T21:48:47.950Z,2.08
2023-04-01T21:51:42.734Z,2.03
2023-04-01T21:54:32.828Z,2.02
2023-04-01T21:57:37.357Z,2.03
2023-04-01T22:00:12.521Z,1.98
2023-04-01T22:02:58.397Z,2.02
2023-04-01T22:05:38.043Z,2.05
2023-04-01T22:08:29.740Z,1.98
2023-04-01T22:11:25.263Z,1.95
2023-04-01T22:14:04.190Z,2.01
2023-04-01T22:16:38.316Z,1.98
2023-04-01T22:19:23.863Z,1.97
2023-04-01T22:22:02.088Z,1.95
2023-04-01T22:24:44.085Z,1.96
2023-04-01T22:27:13.852Z,2.16
2023-04-01T22:29:49.202Z,1.98
2023-04-01T22:32:22.482Z,2.00
2023-04-01T22:35:04.433Z,2.08
2023-04-01T22:37:46.625Z,2.08
2023-04-01T22:40:28.734Z,2.08
2023-04-01T22:43:30.688Z,1.99
2023-04-01T22:46:05.170Z,2.05
2023-04-01T22:49:02.749Z,2.00
2023-04-01T22:52:09.546Z,2.06
2023-04-01T22:55:01.157Z,2.11
2023-04-01T22:57:31.542Z,2.11
2023-04-01T23:00:13.844Z,2.16
2023-04-01T23:02:47.630Z,2.20
2023-04-01T23:05:19.422Z,2.26
2023-04-01T23:08:09.301Z,2.30
2023-04-01T23:10:55.205Z,2.38
2023-04-01T23:13:57.573Z,2.46
2023-04-01T23:16:48.668Z,2.45
2023-04-01T23:19:18.862Z,2.50
2023-04-01T23:21:52.936Z,2.56
2023-04-01T23:24:29.428Z,2.60
2023-04-01T23:27:02.356Z,2.65
2023-04-01T23:29:29.499Z,2.59
2023-04-01T23:32:13.919Z,2.64
2023-04-01T23:34:47.065Z,2.71
2023-04-01T23:37:17.727Z,2.68
2023-04-01T23:39:47.503Z,2.59
2023-04-01T23:42:28.368Z,2.64
2023-04-01T23:45:01.860Z,2.75
2023-04-01T23:47:34.985Z,2.72
2023-04-01T23:50:07.168Z,2.70
2023-04-01T23:52:43.111Z,2.72
2023-04-01T23:55:19.332Z,2.67
2023-04-01T23:58:08.575Z,2.69
